Flagstaff Pulliam Airport Flagstaff US
ICAO: KFLG
IATA: FLG
Category: Medium
Scheduled Services: Yes

Elevation: 7014 ft
TransAlt. 18000 ft.

Airport Communications:
ATIS:125.8
ALBUQUERQUE CNTR:124.5
CTAF:134.55
GND:121.9
PRESCOTT RDO:122.3
TWR:134.55
UNICOM:122.95

KFLG Zoom In..

Runways:

(A) RW 03 length 8800 ft width 150 ft
---- / hdg 27

(B) RW 21 length 8800 ft width 150 ft
ILS 110.50 / hdg 207

Location; KFLG
Day. 29 / Time. 20.57 Zulu
* Altimeter: 30.33
* Temperature: 28° c. 82.4°f.
* Wind from: 190° Speed 12 kn with Gusts up to 20 kn.
Dewpoint: -01° c.
Visibility: 10 Statute Miles.
Clouds: Clear (automated report).

KFLG 292057Z 19012G20KT 10SM CLR 28/M01 A3033 RMK AO2 SLP161 T02831011 56011


Wind From 190°
Speed 12 kn.

 
 
jpsmedia worldairports.se 2020   terms of use